sensor_id;sensor_type;location;lat;lon;timestamp;P1;durP1;ratioP1;P2;durP2;ratioP2
36253;SDS011;22291;52.250;21.228;2024-03-08T00:00:16;126.12;;;57.95;;
36253;SDS011;22291;52.250;21.228;2024-03-08T00:02:45;121.13;;;56.80;;
36253;SDS011;22291;52.250;21.228;2024-03-08T00:05:15;121.82;;;57.83;;
36253;SDS011;22291;52.250;21.228;2024-03-08T00:07:43;128.10;;;58.68;;
36253;SDS011;22291;52.250;21.228;2024-03-08T00:10:10;123.50;;;58.80;;
36253;SDS011;22291;52.250;21.228;2024-03-08T00:12:39;126.40;;;59.13;;
36253;SDS011;22291;52.250;21.228;2024-03-08T00:15:10;127.55;;;59.45;;
36253;SDS011;22291;52.250;21.228;2024-03-08T00:17:41;126.12;;;56.60;;
36253;SDS011;22291;52.250;21.228;2024-03-08T00:20:12;113.25;;;54.00;;
36253;SDS011;22291;52.250;21.228;2024-03-08T00:22:38;110.88;;;53.75;;
36253;SDS011;22291;52.250;21.228;2024-03-08T00:25:09;128.02;;;56.35;;
36253;SDS011;22291;52.250;21.228;2024-03-08T00:27:35;121.93;;;56.43;;
36253;SDS011;22291;52.250;21.228;2024-03-08T00:30:06;123.90;;;55.53;;
36253;SDS011;22291;52.250;21.228;2024-03-08T00:32:34;130.80;;;57.83;;
36253;SDS011;22291;52.250;21.228;2024-03-08T00:35:05;129.12;;;59.13;;
36253;SDS011;22291;52.250;21.228;2024-03-08T00:37:33;118.40;;;55.40;;
36253;SDS011;22291;52.250;21.228;2024-03-08T00:40:01;117.67;;;55.88;;
36253;SDS011;22291;52.250;21.228;2024-03-08T00:42:31;117.42;;;54.67;;
36253;SDS011;22291;52.250;21.228;2024-03-08T00:45:00;127.00;;;57.75;;
36253;SDS011;22291;52.250;21.228;2024-03-08T00:47:28;127.62;;;58.68;;
36253;SDS011;22291;52.250;21.228;2024-03-08T00:49:55;115.50;;;57.48;;
36253;SDS011;22291;52.250;21.228;2024-03-08T00:52:23;114.25;;;54.58;;
36253;SDS011;22291;52.250;21.228;2024-03-08T00:54:50;116.82;;;56.63;;
36253;SDS011;22291;52.250;21.228;2024-03-08T00:57:17;130.72;;;59.88;;
36253;SDS011;22291;52.250;21.228;2024-03-08T00:59:43;141.15;;;62.35;;
36253;SDS011;22291;52.250;21.228;2024-03-08T01:02:11;135.15;;;60.48;;
36253;SDS011;22291;52.250;21.228;2024-03-08T01:04:38;132.57;;;63.70;;
36253;SDS011;22291;52.250;21.228;2024-03-08T01:07:04;146.10;;;63.63;;
36253;SDS011;22291;52.250;21.228;2024-03-08T01:09:32;129.85;;;58.55;;
36253;SDS011;22291;52.250;21.228;2024-03-08T01:11:58;142.35;;;62.45;;
36253;SDS011;22291;52.250;21.228;2024-03-08T01:14:26;146.57;;;64.90;;
36253;SDS011;22291;52.250;21.228;2024-03-08T01:16:55;139.22;;;63.00;;
36253;SDS011;22291;52.250;21.228;2024-03-08T01:19:21;129.87;;;59.80;;
36253;SDS011;22291;52.250;21.228;2024-03-08T01:21:49;126.95;;;58.70;;
36253;SDS011;22291;52.250;21.228;2024-03-08T01:24:15;122.50;;;60.58;;
36253;SDS011;22291;52.250;21.228;2024-03-08T01:26:45;124.05;;;59.38;;
36253;SDS011;22291;52.250;21.228;2024-03-08T01:29:13;106.43;;;44.73;;
36253;SDS011;22291;52.250;21.228;2024-03-08T01:31:39;105.60;;;53.75;;
36253;SDS011;22291;52.250;21.228;2024-03-08T01:34:05;110.05;;;52.50;;
36253;SDS011;22291;52.250;21.228;2024-03-08T01:36:31;123.10;;;54.98;;
36253;SDS011;22291;52.250;21.228;2024-03-08T01:38:57;112.83;;;52.98;;
36253;SDS011;22291;52.250;21.228;2024-03-08T01:41:23;116.35;;;55.12;;
36253;SDS011;22291;52.250;21.228;2024-03-08T01:43:50;110.32;;;54.38;;
36253;SDS011;22291;52.250;21.228;2024-03-08T01:46:18;115.85;;;53.00;;
36253;SDS011;22291;52.250;21.228;2024-03-08T01:48:47;119.08;;;55.05;;
36253;SDS011;22291;52.250;21.228;2024-03-08T01:51:17;115.20;;;54.38;;
36253;SDS011;22291;52.250;21.228;2024-03-08T01:53:46;114.55;;;54.35;;
36253;SDS011;22291;52.250;21.228;2024-03-08T01:56:14;124.15;;;56.80;;
36253;SDS011;22291;52.250;21.228;2024-03-08T01:58:44;129.55;;;57.17;;
36253;SDS011;22291;52.250;21.228;2024-03-08T02:01:11;116.47;;;56.10;;
36253;SDS011;22291;52.250;21.228;2024-03-08T02:03:42;116.67;;;57.05;;
36253;SDS011;22291;52.250;21.228;2024-03-08T02:06:13;132.67;;;58.98;;
36253;SDS011;22291;52.250;21.228;2024-03-08T02:08:42;133.47;;;60.17;;
36253;SDS011;22291;52.250;21.228;2024-03-08T02:11:12;128.47;;;57.83;;
36253;SDS011;22291;52.250;21.228;2024-03-08T02:13:39;122.15;;;58.87;;
36253;SDS011;22291;52.250;21.228;2024-03-08T02:16:08;136.43;;;61.18;;
36253;SDS011;22291;52.250;21.228;2024-03-08T02:18:34;134.43;;;63.97;;
36253;SDS011;22291;52.250;21.228;2024-03-08T02:21:05;137.22;;;62.40;;
36253;SDS011;22291;52.250;21.228;2024-03-08T02:23:33;138.70;;;63.78;;
36253;SDS011;22291;52.250;21.228;2024-03-08T02:26:02;138.22;;;64.37;;
36253;SDS011;22291;52.250;21.228;2024-03-08T02:28:30;134.37;;;60.70;;
36253;SDS011;22291;52.250;21.228;2024-03-08T02:30:59;129.55;;;59.15;;
36253;SDS011;22291;52.250;21.228;2024-03-08T02:33:28;128.95;;;59.93;;
36253;SDS011;22291;52.250;21.228;2024-03-08T02:35:55;129.53;;;59.33;;
36253;SDS011;22291;52.250;21.228;2024-03-08T02:38:22;122.47;;;56.65;;
36253;SDS011;22291;52.250;21.228;2024-03-08T02:40:50;128.78;;;57.83;;
36253;SDS011;22291;52.250;21.228;2024-03-08T02:43:20;121.13;;;56.95;;
36253;SDS011;22291;52.250;21.228;2024-03-08T02:45:50;124.80;;;55.05;;
36253;SDS011;22291;52.250;21.228;2024-03-08T02:48:21;120.55;;;55.98;;
36253;SDS011;22291;52.250;21.228;2024-03-08T02:50:49;122.42;;;56.48;;
36253;SDS011;22291;52.250;21.228;2024-03-08T02:53:19;120.85;;;56.15;;
36253;SDS011;22291;52.250;21.228;2024-03-08T02:55:45;117.03;;;55.88;;
36253;SDS011;22291;52.250;21.228;2024-03-08T02:58:13;114.25;;;52.95;;
36253;SDS011;22291;52.250;21.228;2024-03-08T03:00:41;118.30;;;56.48;;
36253;SDS011;22291;52.250;21.228;2024-03-08T03:03:09;116.88;;;53.25;;
36253;SDS011;22291;52.250;21.228;2024-03-08T03:05:38;122.55;;;56.02;;
36253;SDS011;22291;52.250;21.228;2024-03-08T03:08:08;112.40;;;53.10;;
36253;SDS011;22291;52.250;21.228;2024-03-08T03:10:36;115.55;;;52.35;;
36253;SDS011;22291;52.250;21.228;2024-03-08T03:13:04;106.85;;;51.45;;
36253;SDS011;22291;52.250;21.228;2024-03-08T03:15:31;110.12;;;53.38;;
36253;SDS011;22291;52.250;21.228;2024-03-08T03:17:57;120.80;;;54.80;;
36253;SDS011;22291;52.250;21.228;2024-03-08T03:20:23;112.97;;;53.10;;
36253;SDS011;22291;52.250;21.228;2024-03-08T03:22:51;112.77;;;51.88;;
36253;SDS011;22291;52.250;21.228;2024-03-08T03:25:20;113.40;;;54.27;;
36253;SDS011;22291;52.250;21.228;2024-03-08T03:27:53;108.92;;;52.80;;
36253;SDS011;22291;52.250;21.228;2024-03-08T03:30:21;120.28;;;53.10;;
36253;SDS011;22291;52.250;21.228;2024-03-08T03:32:52;115.57;;;53.68;;
36253;SDS011;22291;52.250;21.228;2024-03-08T03:35:22;110.00;;;52.33;;
36253;SDS011;22291;52.250;21.228;2024-03-08T03:37:48;118.80;;;52.67;;
36253;SDS011;22291;52.250;21.228;2024-03-08T03:40:33;114.97;;;53.98;;
36253;SDS011;22291;52.250;21.228;2024-03-08T03:43:06;114.80;;;54.55;;
36253;SDS011;22291;52.250;21.228;2024-03-08T03:48:05;105.20;;;49.13;;
36253;SDS011;22291;52.250;21.228;2024-03-08T03:50:34;120.80;;;53.45;;
36253;SDS011;22291;52.250;21.228;2024-03-08T03:53:02;114.10;;;51.73;;
36253;SDS011;22291;52.250;21.228;2024-03-08T03:55:32;117.17;;;55.10;;
36253;SDS011;22291;52.250;21.228;2024-03-08T03:57:58;121.77;;;54.55;;
36253;SDS011;22291;52.250;21.228;2024-03-08T04:00:26;125.33;;;55.35;;
36253;SDS011;22291;52.250;21.228;2024-03-08T04:02:53;115.05;;;52.95;;
36253;SDS011;22291;52.250;21.228;2024-03-08T04:05:23;118.45;;;54.45;;
36253;SDS011;22291;52.250;21.228;2024-03-08T04:07:49;125.97;;;56.88;;
36253;SDS011;22291;52.250;21.228;2024-03-08T04:10:15;124.87;;;58.58;;
36253;SDS011;22291;52.250;21.228;2024-03-08T04:12:45;123.28;;;59.25;;
36253;SDS011;22291;52.250;21.228;2024-03-08T04:15:13;122.47;;;60.05;;
36253;SDS011;22291;52.250;21.228;2024-03-08T04:17:43;137.25;;;61.13;;
36253;SDS011;22291;52.250;21.228;2024-03-08T04:20:11;128.45;;;58.83;;
36253;SDS011;22291;52.250;21.228;2024-03-08T04:22:41;124.70;;;56.65;;
36253;SDS011;22291;52.250;21.228;2024-03-08T04:25:12;125.22;;;58.48;;
36253;SDS011;22291;52.250;21.228;2024-03-08T04:27:43;121.95;;;55.65;;
36253;SDS011;22291;52.250;21.228;2024-03-08T04:30:12;129.63;;;58.98;;
36253;SDS011;22291;52.250;21.228;2024-03-08T04:35:10;121.25;;;54.80;;
36253;SDS011;22291;52.250;21.228;2024-03-08T04:37:41;130.80;;;57.35;;
36253;SDS011;22291;52.250;21.228;2024-03-08T04:40:07;127.62;;;59.75;;
36253;SDS011;22291;52.250;21.228;2024-03-08T04:42:37;121.70;;;56.50;;
36253;SDS011;22291;52.250;21.228;2024-03-08T04:45:09;125.78;;;55.70;;
36253;SDS011;22291;52.250;21.228;2024-03-08T04:47:42;122.13;;;57.43;;
36253;SDS011;22291;52.250;21.228;2024-03-08T04:50:11;117.72;;;55.03;;
36253;SDS011;22291;52.250;21.228;2024-03-08T04:52:38;124.82;;;55.92;;
36253;SDS011;22291;52.250;21.228;2024-03-08T04:55:07;129.90;;;56.83;;
36253;SDS011;22291;52.250;21.228;2024-03-08T04:57:34;122.62;;;57.00;;
36253;SDS011;22291;52.250;21.228;2024-03-08T05:00:02;135.78;;;58.75;;
36253;SDS011;22291;52.250;21.228;2024-03-08T05:02:33;126.47;;;57.55;;
36253;SDS011;22291;52.250;21.228;2024-03-08T05:04:59;121.70;;;57.30;;
36253;SDS011;22291;52.250;21.228;2024-03-08T05:07:27;130.10;;;59.98;;
36253;SDS011;22291;52.250;21.228;2024-03-08T05:09:56;131.27;;;58.08;;
36253;SDS011;22291;52.250;21.228;2024-03-08T05:12:23;125.85;;;58.58;;
36253;SDS011;22291;52.250;21.228;2024-03-08T05:14:49;128.38;;;57.88;;
36253;SDS011;22291;52.250;21.228;2024-03-08T05:17:17;132.80;;;58.17;;
36253;SDS011;22291;52.250;21.228;2024-03-08T05:19:43;122.10;;;55.78;;
36253;SDS011;22291;52.250;21.228;2024-03-08T05:22:10;121.82;;;57.08;;
36253;SDS011;22291;52.250;21.228;2024-03-08T05:24:39;132.07;;;59.77;;
36253;SDS011;22291;52.250;21.228;2024-03-08T05:27:07;124.62;;;58.17;;
36253;SDS011;22291;52.250;21.228;2024-03-08T05:29:33;121.95;;;56.48;;
36253;SDS011;22291;52.250;21.228;2024-03-08T05:31:59;117.45;;;55.28;;
36253;SDS011;22291;52.250;21.228;2024-03-08T05:34:29;122.25;;;56.48;;
36253;SDS011;22291;52.250;21.228;2024-03-08T05:36:58;125.18;;;57.93;;
36253;SDS011;22291;52.250;21.228;2024-03-08T05:39:25;125.58;;;57.62;;
36253;SDS011;22291;52.250;21.228;2024-03-08T05:41:54;122.07;;;56.13;;
36253;SDS011;22291;52.250;21.228;2024-03-08T05:44:21;122.60;;;55.10;;
36253;SDS011;22291;52.250;21.228;2024-03-08T05:46:53;122.98;;;56.15;;
36253;SDS011;22291;52.250;21.228;2024-03-08T05:49:22;127.22;;;58.73;;
36253;SDS011;22291;52.250;21.228;2024-03-08T05:51:53;134.32;;;60.48;;
36253;SDS011;22291;52.250;21.228;2024-03-08T05:56:49;126.87;;;56.30;;
36253;SDS011;22291;52.250;21.228;2024-03-08T05:59:20;137.37;;;60.98;;
36253;SDS011;22291;52.250;21.228;2024-03-08T06:01:48;131.03;;;61.95;;
36253;SDS011;22291;52.250;21.228;2024-03-08T06:04:16;140.88;;;63.68;;
36253;SDS011;22291;52.250;21.228;2024-03-08T06:06:44;139.72;;;65.05;;
36253;SDS011;22291;52.250;21.228;2024-03-08T06:09:15;140.77;;;64.92;;
36253;SDS011;22291;52.250;21.228;2024-03-08T06:11:46;137.57;;;66.92;;
36253;SDS011;22291;52.250;21.228;2024-03-08T06:14:12;155.00;;;71.67;;
36253;SDS011;22291;52.250;21.228;2024-03-08T06:16:38;161.52;;;75.62;;
36253;SDS011;22291;52.250;21.228;2024-03-08T06:19:04;169.35;;;78.90;;
36253;SDS011;22291;52.250;21.228;2024-03-08T06:21:32;170.72;;;83.05;;
36253;SDS011;22291;52.250;21.228;2024-03-08T06:23:59;186.67;;;85.62;;
36253;SDS011;22291;52.250;21.228;2024-03-08T06:26:25;193.82;;;89.07;;
36253;SDS011;22291;52.250;21.228;2024-03-08T06:28:55;186.70;;;90.90;;
36253;SDS011;22291;52.250;21.228;2024-03-08T06:31:24;206.97;;;96.45;;
36253;SDS011;22291;52.250;21.228;2024-03-08T06:33:52;193.60;;;94.25;;
36253;SDS011;22291;52.250;21.228;2024-03-08T06:36:20;205.65;;;97.80;;
36253;SDS011;22291;52.250;21.228;2024-03-08T06:38:51;207.92;;;97.60;;
36253;SDS011;22291;52.250;21.228;2024-03-08T06:41:20;202.53;;;98.65;;
36253;SDS011;22291;52.250;21.228;2024-03-08T06:43:46;206.13;;;100.55;;
36253;SDS011;22291;52.250;21.228;2024-03-08T06:46:16;203.98;;;96.82;;
36253;SDS011;22291;52.250;21.228;2024-03-08T06:51:14;191.20;;;90.07;;
36253;SDS011;22291;52.250;21.228;2024-03-08T06:53:42;202.13;;;96.90;;
36253;SDS011;22291;52.250;21.228;2024-03-08T06:56:09;182.12;;;92.37;;
36253;SDS011;22291;52.250;21.228;2024-03-08T06:58:37;195.32;;;93.17;;
36253;SDS011;22291;52.250;21.228;2024-03-08T07:01:03;182.27;;;90.95;;
36253;SDS011;22291;52.250;21.228;2024-03-08T07:03:33;185.88;;;91.20;;
36253;SDS011;22291;52.250;21.228;2024-03-08T07:06:01;171.35;;;91.17;;
36253;SDS011;22291;52.250;21.228;2024-03-08T07:08:29;177.60;;;88.78;;
36253;SDS011;22291;52.250;21.228;2024-03-08T07:10:57;180.65;;;88.95;;
36253;SDS011;22291;52.250;21.228;2024-03-08T07:13:25;161.77;;;85.10;;
36253;SDS011;22291;52.250;21.228;2024-03-08T07:15:53;156.43;;;82.60;;
36253;SDS011;22291;52.250;21.228;2024-03-08T07:18:21;158.50;;;87.17;;
36253;SDS011;22291;52.250;21.228;2024-03-08T07:20:48;157.52;;;84.35;;
36253;SDS011;22291;52.250;21.228;2024-03-08T07:23:16;160.25;;;86.32;;
36253;SDS011;22291;52.250;21.228;2024-03-08T07:25:46;136.95;;;70.05;;
36253;SDS011;22291;52.250;21.228;2024-03-08T07:28:15;126.38;;;66.25;;
36253;SDS011;22291;52.250;21.228;2024-03-08T07:30:41;120.95;;;62.05;;
36253;SDS011;22291;52.250;21.228;2024-03-08T07:33:11;119.28;;;65.40;;
36253;SDS011;22291;52.250;21.228;2024-03-08T07:35:40;111.50;;;61.50;;
36253;SDS011;22291;52.250;21.228;2024-03-08T07:38:10;123.18;;;65.92;;
36253;SDS011;22291;52.250;21.228;2024-03-08T07:40:38;114.28;;;60.67;;
36253;SDS011;22291;52.250;21.228;2024-03-08T07:43:10;108.10;;;54.33;;
36253;SDS011;22291;52.250;21.228;2024-03-08T07:45:38;103.25;;;55.08;;
36253;SDS011;22291;52.250;21.228;2024-03-08T07:48:08;79.42;;;43.55;;
36253;SDS011;22291;52.250;21.228;2024-03-08T07:50:39;81.20;;;42.00;;
36253;SDS011;22291;52.250;21.228;2024-03-08T07:53:09;74.90;;;39.83;;
36253;SDS011;22291;52.250;21.228;2024-03-08T07:55:36;81.02;;;41.20;;
36253;SDS011;22291;52.250;21.228;2024-03-08T07:58:06;72.58;;;38.38;;
36253;SDS011;22291;52.250;21.228;2024-03-08T08:00:34;66.87;;;37.93;;
36253;SDS011;22291;52.250;21.228;2024-03-08T08:03:04;68.15;;;38.02;;
36253;SDS011;22291;52.250;21.228;2024-03-08T08:05:34;68.78;;;39.85;;
36253;SDS011;22291;52.250;21.228;2024-03-08T08:08:02;61.75;;;37.90;;
36253;SDS011;22291;52.250;21.228;2024-03-08T08:10:33;65.10;;;35.80;;
36253;SDS011;22291;52.250;21.228;2024-03-08T08:12:59;59.83;;;34.58;;
36253;SDS011;22291;52.250;21.228;2024-03-08T08:15:30;63.80;;;35.80;;
36253;SDS011;22291;52.250;21.228;2024-03-08T08:18:01;63.23;;;35.85;;
36253;SDS011;22291;52.250;21.228;2024-03-08T08:20:31;53.75;;;31.93;;
36253;SDS011;22291;52.250;21.228;2024-03-08T08:22:57;44.60;;;26.27;;
36253;SDS011;22291;52.250;21.228;2024-03-08T08:25:25;45.40;;;26.50;;
36253;SDS011;22291;52.250;21.228;2024-03-08T08:27:51;48.80;;;31.12;;
36253;SDS011;22291;52.250;21.228;2024-03-08T08:30:20;45.73;;;26.60;;
36253;SDS011;22291;52.250;21.228;2024-03-08T08:32:46;41.77;;;25.62;;
36253;SDS011;22291;52.250;21.228;2024-03-08T08:35:16;40.15;;;21.42;;
36253;SDS011;22291;52.250;21.228;2024-03-08T08:37:45;35.20;;;20.77;;
36253;SDS011;22291;52.250;21.228;2024-03-08T08:40:15;28.65;;;18.98;;
36253;SDS011;22291;52.250;21.228;2024-03-08T08:42:44;31.80;;;20.52;;
36253;SDS011;22291;52.250;21.228;2024-03-08T08:45:15;29.20;;;17.27;;
36253;SDS011;22291;52.250;21.228;2024-03-08T08:47:44;21.35;;;13.10;;
36253;SDS011;22291;52.250;21.228;2024-03-08T08:50:15;18.42;;;11.88;;
36253;SDS011;22291;52.250;21.228;2024-03-08T08:52:45;24.27;;;14.63;;
36253;SDS011;22291;52.250;21.228;2024-03-08T08:55:12;25.27;;;16.23;;
36253;SDS011;22291;52.250;21.228;2024-03-08T08:57:41;20.50;;;14.03;;
36253;SDS011;22291;52.250;21.228;2024-03-08T09:00:13;25.32;;;16.57;;
36253;SDS011;22291;52.250;21.228;2024-03-08T09:02:42;23.85;;;16.80;;
36253;SDS011;22291;52.250;21.228;2024-03-08T09:05:12;21.62;;;16.87;;
36253;SDS011;22291;52.250;21.228;2024-03-08T09:07:47;25.45;;;16.90;;
36253;SDS011;22291;52.250;21.228;2024-03-08T09:10:14;27.02;;;19.05;;
36253;SDS011;22291;52.250;21.228;2024-03-08T09:12:42;24.02;;;17.12;;
36253;SDS011;22291;52.250;21.228;2024-03-08T09:15:09;28.40;;;18.55;;
36253;SDS011;22291;52.250;21.228;2024-03-08T09:17:42;26.10;;;18.10;;
36253;SDS011;22291;52.250;21.228;2024-03-08T09:20:11;29.10;;;20.97;;
36253;SDS011;22291;52.250;21.228;2024-03-08T09:22:45;100.72;;;89.37;;
36253;SDS011;22291;52.250;21.228;2024-03-08T09:25:13;17.67;;;14.40;;
36253;SDS011;22291;52.250;21.228;2024-03-08T09:27:40;20.97;;;15.32;;
36253;SDS011;22291;52.250;21.228;2024-03-08T09:30:11;18.00;;;13.60;;
36253;SDS011;22291;52.250;21.228;2024-03-08T09:32:39;22.45;;;14.83;;
36253;SDS011;22291;52.250;21.228;2024-03-08T09:35:09;20.77;;;13.65;;
36253;SDS011;22291;52.250;21.228;2024-03-08T09:37:38;20.88;;;14.38;;
36253;SDS011;22291;52.250;21.228;2024-03-08T09:40:08;20.08;;;15.85;;
36253;SDS011;22291;52.250;21.228;2024-03-08T09:42:36;23.40;;;15.53;;
36253;SDS011;22291;52.250;21.228;2024-03-08T09:45:09;20.72;;;15.72;;
36253;SDS011;22291;52.250;21.228;2024-03-08T09:47:40;21.17;;;14.95;;
36253;SDS011;22291;52.250;21.228;2024-03-08T09:50:11;21.68;;;15.30;;
36253;SDS011;22291;52.250;21.228;2024-03-08T09:55:12;19.12;;;13.58;;
36253;SDS011;22291;52.250;21.228;2024-03-08T10:00:28;19.20;;;13.95;;
36253;SDS011;22291;52.250;21.228;2024-03-08T10:05:31;76.70;;;65.85;;
36253;SDS011;22291;52.250;21.228;2024-03-08T10:10:36;21.17;;;14.98;;
36253;SDS011;22291;52.250;21.228;2024-03-08T10:13:07;19.82;;;14.83;;
36253;SDS011;22291;52.250;21.228;2024-03-08T10:15:39;20.48;;;15.58;;
36253;SDS011;22291;52.250;21.228;2024-03-08T10:18:10;21.60;;;14.43;;
36253;SDS011;22291;52.250;21.228;2024-03-08T10:20:37;21.45;;;15.32;;
36253;SDS011;22291;52.250;21.228;2024-03-08T10:23:04;23.38;;;15.13;;
36253;SDS011;22291;52.250;21.228;2024-03-08T10:25:35;21.77;;;15.40;;
36253;SDS011;22291;52.250;21.228;2024-03-08T10:30:33;22.27;;;14.55;;
36253;SDS011;22291;52.250;21.228;2024-03-08T10:33:00;22.93;;;13.10;;
36253;SDS011;22291;52.250;21.228;2024-03-08T10:35:31;22.07;;;14.60;;
36253;SDS011;22291;52.250;21.228;2024-03-08T10:37:58;19.75;;;13.13;;
36253;SDS011;22291;52.250;21.228;2024-03-08T10:40:31;21.50;;;12.88;;
36253;SDS011;22291;52.250;21.228;2024-03-08T10:43:00;19.35;;;13.83;;
36253;SDS011;22291;52.250;21.228;2024-03-08T10:45:31;22.42;;;12.18;;
36253;SDS011;22291;52.250;21.228;2024-03-08T10:51:04;37.40;;;27.67;;
36253;SDS011;22291;52.250;21.228;2024-03-08T10:53:35;17.42;;;12.07;;
36253;SDS011;22291;52.250;21.228;2024-03-08T10:56:08;17.27;;;12.07;;
36253;SDS011;22291;52.250;21.228;2024-03-08T10:58:41;18.62;;;11.95;;
36253;SDS011;22291;52.250;21.228;2024-03-08T11:01:11;20.05;;;11.95;;
36253;SDS011;22291;52.250;21.228;2024-03-08T11:07:02;14.58;;;10.85;;
36253;SDS011;22291;52.250;21.228;2024-03-08T11:15:13;22.67;;;11.80;;
36253;SDS011;22291;52.250;21.228;2024-03-08T11:20:20;14.35;;;11.03;;
36253;SDS011;22291;52.250;21.228;2024-03-08T11:22:55;18.35;;;11.53;;
36253;SDS011;22291;52.250;21.228;2024-03-08T11:25:31;18.05;;;11.35;;
36253;SDS011;22291;52.250;21.228;2024-03-08T11:28:13;16.75;;;11.78;;
36253;SDS011;22291;52.250;21.228;2024-03-08T11:33:28;17.60;;;10.90;;
36253;SDS011;22291;52.250;21.228;2024-03-08T11:38:43;16.02;;;11.18;;
36253;SDS011;22291;52.250;21.228;2024-03-08T11:41:11;15.83;;;10.95;;
36253;SDS011;22291;52.250;21.228;2024-03-08T11:43:40;15.55;;;11.10;;
36253;SDS011;22291;52.250;21.228;2024-03-08T11:46:15;14.35;;;11.22;;
36253;SDS011;22291;52.250;21.228;2024-03-08T11:48:44;18.85;;;12.60;;
36253;SDS011;22291;52.250;21.228;2024-03-08T11:51:14;17.10;;;12.37;;
36253;SDS011;22291;52.250;21.228;2024-03-08T11:53:44;19.92;;;12.60;;
36253;SDS011;22291;52.250;21.228;2024-03-08T11:56:12;19.48;;;11.93;;
36253;SDS011;22291;52.250;21.228;2024-03-08T11:58:41;18.35;;;12.10;;
36253;SDS011;22291;52.250;21.228;2024-03-08T12:01:09;17.90;;;12.27;;
36253;SDS011;22291;52.250;21.228;2024-03-08T12:03:40;17.85;;;11.60;;
36253;SDS011;22291;52.250;21.228;2024-03-08T12:06:11;17.42;;;12.03;;
36253;SDS011;22291;52.250;21.228;2024-03-08T12:08:41;17.20;;;11.15;;
36253;SDS011;22291;52.250;21.228;2024-03-08T12:11:08;19.50;;;12.10;;
36253;SDS011;22291;52.250;21.228;2024-03-08T12:13:36;18.65;;;12.85;;
36253;SDS011;22291;52.250;21.228;2024-03-08T12:16:04;19.98;;;12.33;;
36253;SDS011;22291;52.250;21.228;2024-03-08T12:18:33;20.48;;;14.58;;
36253;SDS011;22291;52.250;21.228;2024-03-08T12:23:35;17.45;;;13.00;;
36253;SDS011;22291;52.250;21.228;2024-03-08T12:26:23;16.93;;;12.85;;
36253;SDS011;22291;52.250;21.228;2024-03-08T12:28:52;19.85;;;13.32;;
36253;SDS011;22291;52.250;21.228;2024-03-08T12:31:20;19.17;;;13.85;;
36253;SDS011;22291;52.250;21.228;2024-03-08T12:33:52;19.85;;;13.50;;
36253;SDS011;22291;52.250;21.228;2024-03-08T12:36:23;17.27;;;12.28;;
36253;SDS011;22291;52.250;21.228;2024-03-08T12:38:52;19.27;;;12.53;;
36253;SDS011;22291;52.250;21.228;2024-03-08T12:41:21;16.62;;;12.35;;
36253;SDS011;22291;52.250;21.228;2024-03-08T12:43:48;17.12;;;12.90;;
36253;SDS011;22291;52.250;21.228;2024-03-08T12:46:16;18.02;;;13.08;;
36253;SDS011;22291;52.250;21.228;2024-03-08T12:48:50;19.50;;;13.88;;
36253;SDS011;22291;52.250;21.228;2024-03-08T12:51:20;19.20;;;13.72;;
36253;SDS011;22291;52.250;21.228;2024-03-08T12:53:48;20.20;;;13.10;;
36253;SDS011;22291;52.250;21.228;2024-03-08T12:56:19;18.02;;;12.95;;
36253;SDS011;22291;52.250;21.228;2024-03-08T12:58:52;17.98;;;13.62;;
36253;SDS011;22291;52.250;21.228;2024-03-08T13:01:20;20.75;;;12.98;;
36253;SDS011;22291;52.250;21.228;2024-03-08T13:03:47;28.30;;;17.82;;
36253;SDS011;22291;52.250;21.228;2024-03-08T13:06:16;22.30;;;15.35;;
36253;SDS011;22291;52.250;21.228;2024-03-08T13:08:44;21.40;;;14.53;;
36253;SDS011;22291;52.250;21.228;2024-03-08T13:11:11;22.73;;;14.03;;
36253;SDS011;22291;52.250;21.228;2024-03-08T13:13:40;22.80;;;14.50;;
36253;SDS011;22291;52.250;21.228;2024-03-08T13:16:08;26.52;;;15.25;;
36253;SDS011;22291;52.250;21.228;2024-03-08T13:18:36;19.55;;;14.00;;
36253;SDS011;22291;52.250;21.228;2024-03-08T13:21:04;21.07;;;14.07;;
36253;SDS011;22291;52.250;21.228;2024-03-08T13:23:32;21.27;;;14.80;;
36253;SDS011;22291;52.250;21.228;2024-03-08T13:26:06;19.02;;;13.62;;
36253;SDS011;22291;52.250;21.228;2024-03-08T13:31:05;23.70;;;13.78;;
36253;SDS011;22291;52.250;21.228;2024-03-08T13:33:37;20.62;;;14.28;;
36253;SDS011;22291;52.250;21.228;2024-03-08T13:36:08;21.12;;;13.85;;
36253;SDS011;22291;52.250;21.228;2024-03-08T13:38:38;18.73;;;13.35;;
36253;SDS011;22291;52.250;21.228;2024-03-08T13:41:05;22.50;;;13.53;;
36253;SDS011;22291;52.250;21.228;2024-03-08T13:43:32;20.23;;;13.13;;
36253;SDS011;22291;52.250;21.228;2024-03-08T13:46:00;18.15;;;12.43;;
36253;SDS011;22291;52.250;21.228;2024-03-08T13:48:29;19.55;;;13.40;;
36253;SDS011;22291;52.250;21.228;2024-03-08T13:50:58;21.77;;;13.62;;
36253;SDS011;22291;52.250;21.228;2024-03-08T13:53:27;21.25;;;13.13;;
36253;SDS011;22291;52.250;21.228;2024-03-08T13:55:54;25.17;;;14.15;;
36253;SDS011;22291;52.250;21.228;2024-03-08T13:58:23;22.82;;;13.83;;
36253;SDS011;22291;52.250;21.228;2024-03-08T14:00:50;19.12;;;13.80;;
36253;SDS011;22291;52.250;21.228;2024-03-08T14:03:18;17.67;;;13.58;;
36253;SDS011;22291;52.250;21.228;2024-03-08T14:05:45;20.52;;;13.32;;
36253;SDS011;22291;52.250;21.228;2024-03-08T14:08:13;18.48;;;13.05;;
36253;SDS011;22291;52.250;21.228;2024-03-08T14:10:43;17.57;;;12.43;;
36253;SDS011;22291;52.250;21.228;2024-03-08T14:13:12;23.40;;;13.98;;
36253;SDS011;22291;52.250;21.228;2024-03-08T14:15:41;22.67;;;13.13;;
36253;SDS011;22291;52.250;21.228;2024-03-08T14:18:11;20.35;;;13.83;;
36253;SDS011;22291;52.250;21.228;2024-03-08T14:20:39;21.87;;;13.58;;
36253;SDS011;22291;52.250;21.228;2024-03-08T14:23:08;18.75;;;12.88;;
36253;SDS011;22291;52.250;21.228;2024-03-08T14:25:36;21.73;;;13.00;;
36253;SDS011;22291;52.250;21.228;2024-03-08T14:28:04;20.82;;;12.73;;
36253;SDS011;22291;52.250;21.228;2024-03-08T14:30:33;21.65;;;12.93;;
36253;SDS011;22291;52.250;21.228;2024-03-08T14:33:02;18.50;;;12.33;;
36253;SDS011;22291;52.250;21.228;2024-03-08T14:35:32;21.17;;;13.68;;
36253;SDS011;22291;52.250;21.228;2024-03-08T14:37:59;19.27;;;12.88;;
36253;SDS011;22291;52.250;21.228;2024-03-08T14:40:27;22.75;;;13.35;;
36253;SDS011;22291;52.250;21.228;2024-03-08T14:42:56;20.70;;;13.03;;
36253;SDS011;22291;52.250;21.228;2024-03-08T14:45:23;19.52;;;12.30;;
36253;SDS011;22291;52.250;21.228;2024-03-08T14:47:52;20.50;;;13.05;;
36253;SDS011;22291;52.250;21.228;2024-03-08T14:50:22;16.25;;;12.30;;
36253;SDS011;22291;52.250;21.228;2024-03-08T14:52:51;20.52;;;12.78;;
36253;SDS011;22291;52.250;21.228;2024-03-08T14:55:20;21.35;;;12.73;;
36253;SDS011;22291;52.250;21.228;2024-03-08T14:57:48;20.48;;;12.30;;